sensor_id;sensor_type;location;lat;lon;timestamp;temperature;humidity
17489;DHT22;8861;52.644;4.734;2022-10-13T00:02:00;11.40;99.90
17489;DHT22;8861;52.644;4.734;2022-10-13T00:04:29;11.40;99.90
17489;DHT22;8861;52.644;4.734;2022-10-13T00:06:55;11.40;99.90
17489;DHT22;8861;52.644;4.734;2022-10-13T00:09:22;11.40;99.90
17489;DHT22;8861;52.644;4.734;2022-10-13T00:11:49;11.40;99.90
17489;DHT22;8861;52.644;4.734;2022-10-13T00:14:16;11.40;99.90
17489;DHT22;8861;52.644;4.734;2022-10-13T00:16:43;11.40;99.90
17489;DHT22;8861;52.644;4.734;2022-10-13T00:19:10;11.30;99.90
17489;DHT22;8861;52.644;4.734;2022-10-13T00:21:38;11.30;99.90
17489;DHT22;8861;52.644;4.734;2022-10-13T00:24:09;11.30;99.90
17489;DHT22;8861;52.644;4.734;2022-10-13T00:26:36;11.30;99.90
17489;DHT22;8861;52.644;4.734;2022-10-13T00:29:03;11.30;99.90
17489;DHT22;8861;52.644;4.734;2022-10-13T00:31:31;11.30;99.90
17489;DHT22;8861;52.644;4.734;2022-10-13T00:33:59;11.30;99.90
17489;DHT22;8861;52.644;4.734;2022-10-13T00:36:27;11.30;99.90
17489;DHT22;8861;52.644;4.734;2022-10-13T00:38:56;11.30;99.90
17489;DHT22;8861;52.644;4.734;2022-10-13T00:41:23;11.30;99.90
17489;DHT22;8861;52.644;4.734;2022-10-13T00:43:56;11.30;99.90
17489;DHT22;8861;52.644;4.734;2022-10-13T00:46:25;11.30;99.90
17489;DHT22;8861;52.644;4.734;2022-10-13T00:48:53;11.30;99.90
17489;DHT22;8861;52.644;4.734;2022-10-13T00:51:24;11.30;99.90
17489;DHT22;8861;52.644;4.734;2022-10-13T00:53:53;11.30;99.90
17489;DHT22;8861;52.644;4.734;2022-10-13T00:56:23;11.30;99.90
17489;DHT22;8861;52.644;4.734;2022-10-13T00:58:52;11.30;99.90
17489;DHT22;8861;52.644;4.734;2022-10-13T01:01:19;11.30;99.90
17489;DHT22;8861;52.644;4.734;2022-10-13T01:03:46;11.20;99.90
17489;DHT22;8861;52.644;4.734;2022-10-13T01:06:14;11.30;99.90
17489;DHT22;8861;52.644;4.734;2022-10-13T01:08:42;11.30;99.90
17489;DHT22;8861;52.644;4.734;2022-10-13T01:11:33;11.30;99.90
17489;DHT22;8861;52.644;4.734;2022-10-13T01:14:10;11.30;99.90
17489;DHT22;8861;52.644;4.734;2022-10-13T01:16:46;11.30;99.90
17489;DHT22;8861;52.644;4.734;2022-10-13T01:19:44;11.30;99.90
17489;DHT22;8861;52.644;4.734;2022-10-13T01:22:24;11.30;99.90
17489;DHT22;8861;52.644;4.734;2022-10-13T01:25:03;11.30;99.90
17489;DHT22;8861;52.644;4.734;2022-10-13T01:28:16;11.40;99.90
17489;DHT22;8861;52.644;4.734;2022-10-13T01:30:51;11.30;99.90
17489;DHT22;8861;52.644;4.734;2022-10-13T01:33:28;11.40;99.90
17489;DHT22;8861;52.644;4.734;2022-10-13T01:36:04;11.40;99.90
17489;DHT22;8861;52.644;4.734;2022-10-13T01:38:36;11.40;99.90
17489;DHT22;8861;52.644;4.734;2022-10-13T01:41:10;11.40;99.90
17489;DHT22;8861;52.644;4.734;2022-10-13T01:43:43;11.40;99.90
17489;DHT22;8861;52.644;4.734;2022-10-13T01:46:14;11.40;99.90
17489;DHT22;8861;52.644;4.734;2022-10-13T01:48:43;11.40;99.90
17489;DHT22;8861;52.644;4.734;2022-10-13T01:51:17;11.50;99.90
17489;DHT22;8861;52.644;4.734;2022-10-13T01:53:45;11.40;99.90
17489;DHT22;8861;52.644;4.734;2022-10-13T01:56:13;11.50;99.90
17489;DHT22;8861;52.644;4.734;2022-10-13T01:58:40;11.50;99.90
17489;DHT22;8861;52.644;4.734;2022-10-13T02:01:16;11.50;99.90
17489;DHT22;8861;52.644;4.734;2022-10-13T02:03:52;11.50;99.90
17489;DHT22;8861;52.644;4.734;2022-10-13T02:06:24;11.50;99.90
17489;DHT22;8861;52.644;4.734;2022-10-13T02:08:58;11.50;99.90
17489;DHT22;8861;52.644;4.734;2022-10-13T02:11:28;11.50;99.90
17489;DHT22;8861;52.644;4.734;2022-10-13T02:14:02;11.60;99.90
17489;DHT22;8861;52.644;4.734;2022-10-13T02:16:34;11.60;99.90
17489;DHT22;8861;52.644;4.734;2022-10-13T02:19:03;11.60;99.90
17489;DHT22;8861;52.644;4.734;2022-10-13T02:21:31;11.60;99.90
17489;DHT22;8861;52.644;4.734;2022-10-13T02:23:58;11.60;99.90
17489;DHT22;8861;52.644;4.734;2022-10-13T02:26:26;11.60;99.90
17489;DHT22;8861;52.644;4.734;2022-10-13T02:28:53;11.70;99.90
17489;DHT22;8861;52.644;4.734;2022-10-13T02:31:20;11.70;99.90
17489;DHT22;8861;52.644;4.734;2022-10-13T02:33:48;11.70;99.90
17489;DHT22;8861;52.644;4.734;2022-10-13T02:36:15;11.70;99.90
17489;DHT22;8861;52.644;4.734;2022-10-13T02:38:41;11.80;99.90
17489;DHT22;8861;52.644;4.734;2022-10-13T02:41:08;11.80;99.90
17489;DHT22;8861;52.644;4.734;2022-10-13T02:43:35;11.80;99.90
17489;DHT22;8861;52.644;4.734;2022-10-13T02:46:03;11.80;99.90
17489;DHT22;8861;52.644;4.734;2022-10-13T02:48:30;11.80;99.90
17489;DHT22;8861;52.644;4.734;2022-10-13T02:50:58;11.80;99.90
17489;DHT22;8861;52.644;4.734;2022-10-13T02:53:25;11.80;99.90
17489;DHT22;8861;52.644;4.734;2022-10-13T02:55:52;11.80;99.90
17489;DHT22;8861;52.644;4.734;2022-10-13T02:58:18;11.80;99.90
17489;DHT22;8861;52.644;4.734;2022-10-13T03:00:45;11.90;99.90
17489;DHT22;8861;52.644;4.734;2022-10-13T03:03:12;11.80;99.90
17489;DHT22;8861;52.644;4.734;2022-10-13T03:05:39;11.90;99.90
17489;DHT22;8861;52.644;4.734;2022-10-13T03:08:07;11.90;99.90
17489;DHT22;8861;52.644;4.734;2022-10-13T03:10:34;11.90;99.90
17489;DHT22;8861;52.644;4.734;2022-10-13T03:13:01;11.90;99.90
17489;DHT22;8861;52.644;4.734;2022-10-13T03:15:28;11.90;99.90
17489;DHT22;8861;52.644;4.734;2022-10-13T03:17:54;11.90;99.90
17489;DHT22;8861;52.644;4.734;2022-10-13T03:20:21;11.90;99.90
17489;DHT22;8861;52.644;4.734;2022-10-13T03:22:48;11.90;99.90
17489;DHT22;8861;52.644;4.734;2022-10-13T03:25:16;11.90;99.90
17489;DHT22;8861;52.644;4.734;2022-10-13T03:27:43;11.90;99.90
17489;DHT22;8861;52.644;4.734;2022-10-13T03:30:11;11.90;99.90
17489;DHT22;8861;52.644;4.734;2022-10-13T03:32:37;11.90;99.90
17489;DHT22;8861;52.644;4.734;2022-10-13T03:35:05;11.90;99.90
17489;DHT22;8861;52.644;4.734;2022-10-13T03:37:32;11.90;99.90
17489;DHT22;8861;52.644;4.734;2022-10-13T03:39:59;11.90;99.90
17489;DHT22;8861;52.644;4.734;2022-10-13T03:42:27;11.90;99.90
17489;DHT22;8861;52.644;4.734;2022-10-13T03:44:54;12.00;99.90
17489;DHT22;8861;52.644;4.734;2022-10-13T03:47:21;12.00;99.90
17489;DHT22;8861;52.644;4.734;2022-10-13T03:49:48;12.00;99.90
17489;DHT22;8861;52.644;4.734;2022-10-13T03:52:14;12.00;99.90
17489;DHT22;8861;52.644;4.734;2022-10-13T03:54:41;12.10;99.90
17489;DHT22;8861;52.644;4.734;2022-10-13T03:57:08;12.00;99.90
17489;DHT22;8861;52.644;4.734;2022-10-13T03:59:38;12.00;99.90
17489;DHT22;8861;52.644;4.734;2022-10-13T04:02:05;12.00;99.90
17489;DHT22;8861;52.644;4.734;2022-10-13T04:04:32;12.00;99.90
17489;DHT22;8861;52.644;4.734;2022-10-13T04:06:59;12.00;99.90
17489;DHT22;8861;52.644;4.734;2022-10-13T04:09:26;12.10;99.90
17489;DHT22;8861;52.644;4.734;2022-10-13T04:11:53;12.10;99.90
17489;DHT22;8861;52.644;4.734;2022-10-13T04:14:20;12.10;99.90
17489;DHT22;8861;52.644;4.734;2022-10-13T04:16:48;12.10;99.90
17489;DHT22;8861;52.644;4.734;2022-10-13T04:19:15;12.10;99.90
17489;DHT22;8861;52.644;4.734;2022-10-13T04:21:42;12.10;99.90
17489;DHT22;8861;52.644;4.734;2022-10-13T04:24:11;12.20;99.90
17489;DHT22;8861;52.644;4.734;2022-10-13T04:26:38;12.20;99.90
17489;DHT22;8861;52.644;4.734;2022-10-13T04:29:07;12.20;99.90
17489;DHT22;8861;52.644;4.734;2022-10-13T04:31:34;12.20;99.90
17489;DHT22;8861;52.644;4.734;2022-10-13T04:34:03;12.20;99.90
17489;DHT22;8861;52.644;4.734;2022-10-13T04:36:29;12.20;99.90
17489;DHT22;8861;52.644;4.734;2022-10-13T04:38:56;12.20;99.90
17489;DHT22;8861;52.644;4.734;2022-10-13T04:41:23;12.30;99.90
17489;DHT22;8861;52.644;4.734;2022-10-13T04:43:51;12.30;99.90
17489;DHT22;8861;52.644;4.734;2022-10-13T04:46:21;12.30;99.90
17489;DHT22;8861;52.644;4.734;2022-10-13T04:48:48;12.30;99.90
17489;DHT22;8861;52.644;4.734;2022-10-13T04:51:18;12.30;99.90
17489;DHT22;8861;52.644;4.734;2022-10-13T04:53:44;12.30;99.90
17489;DHT22;8861;52.644;4.734;2022-10-13T04:56:13;12.30;99.90
17489;DHT22;8861;52.644;4.734;2022-10-13T04:58:42;12.40;99.90
17489;DHT22;8861;52.644;4.734;2022-10-13T05:01:12;12.40;99.90
17489;DHT22;8861;52.644;4.734;2022-10-13T05:03:40;12.40;99.90
17489;DHT22;8861;52.644;4.734;2022-10-13T05:06:13;12.40;99.90
17489;DHT22;8861;52.644;4.734;2022-10-13T05:08:41;12.50;99.90
17489;DHT22;8861;52.644;4.734;2022-10-13T05:11:08;12.50;99.90
17489;DHT22;8861;52.644;4.734;2022-10-13T05:13:35;12.50;99.90
17489;DHT22;8861;52.644;4.734;2022-10-13T05:16:05;12.60;99.90
17489;DHT22;8861;52.644;4.734;2022-10-13T05:18:33;12.60;99.90
17489;DHT22;8861;52.644;4.734;2022-10-13T05:21:06;12.60;99.90
17489;DHT22;8861;52.644;4.734;2022-10-13T05:23:33;12.60;99.90
17489;DHT22;8861;52.644;4.734;2022-10-13T05:26:02;12.60;99.90
17489;DHT22;8861;52.644;4.734;2022-10-13T05:28:29;12.60;99.90
17489;DHT22;8861;52.644;4.734;2022-10-13T05:30:56;12.60;99.90
17489;DHT22;8861;52.644;4.734;2022-10-13T05:33:23;12.60;99.90
17489;DHT22;8861;52.644;4.734;2022-10-13T05:35:50;12.60;99.90
17489;DHT22;8861;52.644;4.734;2022-10-13T05:38:17;12.60;99.90
17489;DHT22;8861;52.644;4.734;2022-10-13T05:40:43;12.60;99.90
17489;DHT22;8861;52.644;4.734;2022-10-13T05:43:12;12.60;99.90
17489;DHT22;8861;52.644;4.734;2022-10-13T05:45:39;12.60;99.90
17489;DHT22;8861;52.644;4.734;2022-10-13T05:48:06;12.60;99.90
17489;DHT22;8861;52.644;4.734;2022-10-13T05:50:33;12.70;99.90
17489;DHT22;8861;52.644;4.734;2022-10-13T05:53:00;12.70;99.90
17489;DHT22;8861;52.644;4.734;2022-10-13T05:55:27;12.70;99.90
17489;DHT22;8861;52.644;4.734;2022-10-13T05:57:54;12.60;99.90
17489;DHT22;8861;52.644;4.734;2022-10-13T06:00:22;12.60;99.90
17489;DHT22;8861;52.644;4.734;2022-10-13T06:02:52;12.70;99.90
17489;DHT22;8861;52.644;4.734;2022-10-13T06:05:22;12.70;99.90
17489;DHT22;8861;52.644;4.734;2022-10-13T06:07:50;12.70;99.90
17489;DHT22;8861;52.644;4.734;2022-10-13T06:10:17;12.70;99.90
17489;DHT22;8861;52.644;4.734;2022-10-13T06:12:44;12.70;99.90
17489;DHT22;8861;52.644;4.734;2022-10-13T06:15:10;12.70;99.90
17489;DHT22;8861;52.644;4.734;2022-10-13T06:17:39;12.80;99.90
17489;DHT22;8861;52.644;4.734;2022-10-13T06:20:07;12.80;99.90
17489;DHT22;8861;52.644;4.734;2022-10-13T06:22:34;12.80;99.90
17489;DHT22;8861;52.644;4.734;2022-10-13T06:25:01;12.90;99.90
17489;DHT22;8861;52.644;4.734;2022-10-13T06:27:29;12.90;99.90
17489;DHT22;8861;52.644;4.734;2022-10-13T06:29:56;12.90;99.90
17489;DHT22;8861;52.644;4.734;2022-10-13T06:32:23;12.90;99.90
17489;DHT22;8861;52.644;4.734;2022-10-13T06:34:52;12.90;99.90
17489;DHT22;8861;52.644;4.734;2022-10-13T06:37:18;13.00;99.90
17489;DHT22;8861;52.644;4.734;2022-10-13T06:39:45;13.00;99.90
17489;DHT22;8861;52.644;4.734;2022-10-13T06:42:12;13.00;99.90
17489;DHT22;8861;52.644;4.734;2022-10-13T06:44:39;13.00;99.90
17489;DHT22;8861;52.644;4.734;2022-10-13T06:47:06;13.00;99.90
17489;DHT22;8861;52.644;4.734;2022-10-13T06:49:33;13.00;99.90
17489;DHT22;8861;52.644;4.734;2022-10-13T06:52:01;13.00;99.90
17489;DHT22;8861;52.644;4.734;2022-10-13T06:54:28;13.10;99.90
17489;DHT22;8861;52.644;4.734;2022-10-13T06:56:55;13.10;99.90
17489;DHT22;8861;52.644;4.734;2022-10-13T06:59:22;13.10;99.90
17489;DHT22;8861;52.644;4.734;2022-10-13T07:01:51;13.10;99.90
17489;DHT22;8861;52.644;4.734;2022-10-13T07:04:18;13.10;99.90
17489;DHT22;8861;52.644;4.734;2022-10-13T07:06:45;13.20;99.90
17489;DHT22;8861;52.644;4.734;2022-10-13T07:09:13;13.20;99.90
17489;DHT22;8861;52.644;4.734;2022-10-13T07:11:43;13.20;99.90
17489;DHT22;8861;52.644;4.734;2022-10-13T07:14:09;13.20;99.90
17489;DHT22;8861;52.644;4.734;2022-10-13T07:16:36;13.20;99.90
17489;DHT22;8861;52.644;4.734;2022-10-13T07:19:03;13.30;99.90
17489;DHT22;8861;52.644;4.734;2022-10-13T07:21:30;13.30;99.90
17489;DHT22;8861;52.644;4.734;2022-10-13T07:23:57;13.30;99.90
17489;DHT22;8861;52.644;4.734;2022-10-13T07:26:25;13.30;99.90
17489;DHT22;8861;52.644;4.734;2022-10-13T07:28:52;13.30;99.90
17489;DHT22;8861;52.644;4.734;2022-10-13T07:31:19;13.30;99.90
17489;DHT22;8861;52.644;4.734;2022-10-13T07:33:48;13.30;99.90
17489;DHT22;8861;52.644;4.734;2022-10-13T07:36:15;13.30;99.90
17489;DHT22;8861;52.644;4.734;2022-10-13T07:38:42;13.40;99.90
17489;DHT22;8861;52.644;4.734;2022-10-13T07:41:10;13.30;99.90
17489;DHT22;8861;52.644;4.734;2022-10-13T07:43:39;13.40;99.90
17489;DHT22;8861;52.644;4.734;2022-10-13T07:46:06;13.40;99.90
17489;DHT22;8861;52.644;4.734;2022-10-13T07:48:34;13.40;99.90
17489;DHT22;8861;52.644;4.734;2022-10-13T07:51:03;13.50;99.90
17489;DHT22;8861;52.644;4.734;2022-10-13T07:53:30;13.50;99.90
17489;DHT22;8861;52.644;4.734;2022-10-13T07:55:59;13.50;99.90
17489;DHT22;8861;52.644;4.734;2022-10-13T07:58:26;13.50;99.90
17489;DHT22;8861;52.644;4.734;2022-10-13T08:00:58;13.50;99.90
17489;DHT22;8861;52.644;4.734;2022-10-13T08:03:25;13.60;99.90
17489;DHT22;8861;52.644;4.734;2022-10-13T08:05:52;13.60;99.90
17489;DHT22;8861;52.644;4.734;2022-10-13T08:08:19;13.60;99.90
17489;DHT22;8861;52.644;4.734;2022-10-13T08:10:46;13.60;99.90
17489;DHT22;8861;52.644;4.734;2022-10-13T08:13:13;13.70;99.90
17489;DHT22;8861;52.644;4.734;2022-10-13T08:15:40;13.70;99.90
17489;DHT22;8861;52.644;4.734;2022-10-13T08:18:09;13.70;99.90
17489;DHT22;8861;52.644;4.734;2022-10-13T08:20:38;13.70;99.90
17489;DHT22;8861;52.644;4.734;2022-10-13T08:23:06;13.70;99.90
17489;DHT22;8861;52.644;4.734;2022-10-13T08:25:36;13.70;99.90
17489;DHT22;8861;52.644;4.734;2022-10-13T08:28:03;13.70;99.90
17489;DHT22;8861;52.644;4.734;2022-10-13T08:30:30;13.70;99.90
17489;DHT22;8861;52.644;4.734;2022-10-13T08:32:57;13.70;99.90
17489;DHT22;8861;52.644;4.734;2022-10-13T08:35:26;13.80;99.90
17489;DHT22;8861;52.644;4.734;2022-10-13T08:37:52;13.80;99.90
17489;DHT22;8861;52.644;4.734;2022-10-13T08:40:20;13.80;99.90
17489;DHT22;8861;52.644;4.734;2022-10-13T08:42:48;13.80;99.90
17489;DHT22;8861;52.644;4.734;2022-10-13T08:45:18;13.80;99.90
17489;DHT22;8861;52.644;4.734;2022-10-13T08:47:49;13.90;99.90
17489;DHT22;8861;52.644;4.734;2022-10-13T08:50:19;13.90;99.90
17489;DHT22;8861;52.644;4.734;2022-10-13T08:52:52;13.90;99.90
17489;DHT22;8861;52.644;4.734;2022-10-13T08:55:25;13.90;99.90
17489;DHT22;8861;52.644;4.734;2022-10-13T08:57:54;13.90;99.90
17489;DHT22;8861;52.644;4.734;2022-10-13T09:00:21;13.90;99.90
17489;DHT22;8861;52.644;4.734;2022-10-13T09:02:48;13.80;99.90
17489;DHT22;8861;52.644;4.734;2022-10-13T09:05:24;13.80;99.90
17489;DHT22;8861;52.644;4.734;2022-10-13T09:07:56;13.80;99.90
17489;DHT22;8861;52.644;4.734;2022-10-13T09:10:24;13.80;99.90
17489;DHT22;8861;52.644;4.734;2022-10-13T09:12:51;13.90;99.90
17489;DHT22;8861;52.644;4.734;2022-10-13T09:15:18;13.80;99.90
17489;DHT22;8861;52.644;4.734;2022-10-13T09:18:08;13.90;99.90
17489;DHT22;8861;52.644;4.734;2022-10-13T09:20:35;14.00;99.90
17489;DHT22;8861;52.644;4.734;2022-10-13T09:23:06;13.90;99.90
17489;DHT22;8861;52.644;4.734;2022-10-13T09:25:39;13.90;99.90
17489;DHT22;8861;52.644;4.734;2022-10-13T09:28:14;13.90;99.90
17489;DHT22;8861;52.644;4.734;2022-10-13T09:30:43;14.00;99.90
17489;DHT22;8861;52.644;4.734;2022-10-13T09:33:18;14.00;99.90
17489;DHT22;8861;52.644;4.734;2022-10-13T09:35:48;14.00;99.90
17489;DHT22;8861;52.644;4.734;2022-10-13T09:38:18;14.10;99.90
17489;DHT22;8861;52.644;4.734;2022-10-13T09:40:57;14.10;99.90
17489;DHT22;8861;52.644;4.734;2022-10-13T09:43:28;14.10;99.90
17489;DHT22;8861;52.644;4.734;2022-10-13T09:45:56;14.10;99.90
17489;DHT22;8861;52.644;4.734;2022-10-13T09:48:26;14.20;99.90
17489;DHT22;8861;52.644;4.734;2022-10-13T09:50:54;14.20;99.90
17489;DHT22;8861;52.644;4.734;2022-10-13T09:53:27;14.20;99.90
17489;DHT22;8861;52.644;4.734;2022-10-13T09:56:16;14.20;99.90
17489;DHT22;8861;52.644;4.734;2022-10-13T09:58:49;14.20;99.90
17489;DHT22;8861;52.644;4.734;2022-10-13T10:01:22;14.30;99.90
17489;DHT22;8861;52.644;4.734;2022-10-13T10:03:51;14.30;99.90
17489;DHT22;8861;52.644;4.734;2022-10-13T10:06:19;14.40;99.90
17489;DHT22;8861;52.644;4.734;2022-10-13T10:08:53;14.50;99.90
17489;DHT22;8861;52.644;4.734;2022-10-13T10:11:27;14.50;99.90
17489;DHT22;8861;52.644;4.734;2022-10-13T10:13:55;14.60;99.90
17489;DHT22;8861;52.644;4.734;2022-10-13T10:16:25;14.70;99.90
17489;DHT22;8861;52.644;4.734;2022-10-13T10:19:00;14.70;99.90
17489;DHT22;8861;52.644;4.734;2022-10-13T10:21:34;14.80;99.90
17489;DHT22;8861;52.644;4.734;2022-10-13T10:24:08;14.70;99.90
17489;DHT22;8861;52.644;4.734;2022-10-13T10:26:49;14.60;99.90
17489;DHT22;8861;52.644;4.734;2022-10-13T10:29:31;14.60;99.90
17489;DHT22;8861;52.644;4.734;2022-10-13T10:32:10;14.60;99.90
17489;DHT22;8861;52.644;4.734;2022-10-13T10:34:44;14.70;99.90
17489;DHT22;8861;52.644;4.734;2022-10-13T10:37:17;14.70;99.90
17489;DHT22;8861;52.644;4.734;2022-10-13T10:39:48;14.70;99.90
17489;DHT22;8861;52.644;4.734;2022-10-13T10:42:40;14.90;99.90
17489;DHT22;8861;52.644;4.734;2022-10-13T10:45:16;15.10;99.90
17489;DHT22;8861;52.644;4.734;2022-10-13T10:47:45;15.20;99.90
17489;DHT22;8861;52.644;4.734;2022-10-13T10:50:15;15.30;99.90
17489;DHT22;8861;52.644;4.734;2022-10-13T10:52:49;15.30;99.90
17489;DHT22;8861;52.644;4.734;2022-10-13T10:55:25;15.20;99.90
17489;DHT22;8861;52.644;4.734;2022-10-13T10:58:03;15.20;99.90
17489;DHT22;8861;52.644;4.734;2022-10-13T11:00:36;15.20;99.90
17489;DHT22;8861;52.644;4.734;2022-10-13T11:03:09;15.10;99.90
17489;DHT22;8861;52.644;4.734;2022-10-13T11:05:59;15.00;99.90
17489;DHT22;8861;52.644;4.734;2022-10-13T11:08:28;15.00;99.90
17489;DHT22;8861;52.644;4.734;2022-10-13T11:11:35;15.00;99.90
17489;DHT22;8861;52.644;4.734;2022-10-13T11:17:10;15.30;99.90
17489;DHT22;8861;52.644;4.734;2022-10-13T11:19:40;15.60;99.90
17489;DHT22;8861;52.644;4.734;2022-10-13T11:22:16;15.80;99.90
17489;DHT22;8861;52.644;4.734;2022-10-13T11:24:55;16.00;99.90
17489;DHT22;8861;52.644;4.734;2022-10-13T11:30:45;16.30;99.90
17489;DHT22;8861;52.644;4.734;2022-10-13T11:33:51;16.40;99.90
17489;DHT22;8861;52.644;4.734;2022-10-13T11:36:40;16.40;99.90
17489;DHT22;8861;52.644;4.734;2022-10-13T11:42:33;16.30;99.90
17489;DHT22;8861;52.644;4.734;2022-10-13T11:45:07;16.40;99.90
17489;DHT22;8861;52.644;4.734;2022-10-13T11:47:57;16.40;99.90
17489;DHT22;8861;52.644;4.734;2022-10-13T11:50:35;16.60;99.90
17489;DHT22;8861;52.644;4.734;2022-10-13T11:53:11;16.60;99.90
17489;DHT22;8861;52.644;4.734;2022-10-13T11:55:46;16.70;99.90
17489;DHT22;8861;52.644;4.734;2022-10-13T11:58:17;16.80;99.90
17489;DHT22;8861;52.644;4.734;2022-10-13T12:00:56;16.90;99.90
17489;DHT22;8861;52.644;4.734;2022-10-13T12:03:26;16.90;99.90
17489;DHT22;8861;52.644;4.734;2022-10-13T12:05:55;16.90;99.90
17489;DHT22;8861;52.644;4.734;2022-10-13T12:08:24;16.90;99.90
17489;DHT22;8861;52.644;4.734;2022-10-13T12:10:52;16.80;99.90
17489;DHT22;8861;52.644;4.734;2022-10-13T12:13:25;16.90;99.90
17489;DHT22;8861;52.644;4.734;2022-10-13T12:15:57;16.90;99.90
17489;DHT22;8861;52.644;4.734;2022-10-13T12:18:27;16.90;99.90
17489;DHT22;8861;52.644;4.734;2022-10-13T12:20:56;16.90;99.90
17489;DHT22;8861;52.644;4.734;2022-10-13T12:23:23;16.90;99.90
17489;DHT22;8861;52.644;4.734;2022-10-13T12:25:52;17.00;99.90
17489;DHT22;8861;52.644;4.734;2022-10-13T12:28:25;17.00;99.90
17489;DHT22;8861;52.644;4.734;2022-10-13T12:30:54;17.10;99.90
17489;DHT22;8861;52.644;4.734;2022-10-13T12:33:25;17.10;99.90
17489;DHT22;8861;52.644;4.734;2022-10-13T12:35:53;17.00;99.90
17489;DHT22;8861;52.644;4.734;2022-10-13T12:38:21;17.00;99.90
17489;DHT22;8861;52.644;4.734;2022-10-13T12:40:49;17.00;99.90
17489;DHT22;8861;52.644;4.734;2022-10-13T12:43:18;16.90;99.90
17489;DHT22;8861;52.644;4.734;2022-10-13T12:45:49;16.90;99.90
17489;DHT22;8861;52.644;4.734;2022-10-13T12:48:32;16.90;99.90
17489;DHT22;8861;52.644;4.734;2022-10-13T12:51:16;17.00;99.90
17489;DHT22;8861;52.644;4.734;2022-10-13T12:53:43;17.10;99.90
17489;DHT22;8861;52.644;4.734;2022-10-13T12:56:28;17.20;99.90
17489;DHT22;8861;52.644;4.734;2022-10-13T12:58:56;17.20;99.90
17489;DHT22;8861;52.644;4.734;2022-10-13T13:01:30;17.20;99.90
17489;DHT22;8861;52.644;4.734;2022-10-13T13:03:59;17.10;99.90
17489;DHT22;8861;52.644;4.734;2022-10-13T13:06:33;17.00;99.90
17489;DHT22;8861;52.644;4.734;2022-10-13T13:09:17;16.80;99.90
17489;DHT22;8861;52.644;4.734;2022-10-13T13:11:45;16.80;99.90
17489;DHT22;8861;52.644;4.734;2022-10-13T13:14:30;16.70;99.90
17489;DHT22;8861;52.644;4.734;2022-10-13T13:17:06;16.70;99.90
17489;DHT22;8861;52.644;4.734;2022-10-13T13:19:33;16.60;99.90
17489;DHT22;8861;52.644;4.734;2022-10-13T13:22:02;16.60;99.90
17489;DHT22;8861;52.644;4.734;2022-10-13T13:24:29;16.50;99.90
17489;DHT22;8861;52.644;4.734;2022-10-13T13:26:56;16.50;99.90
17489;DHT22;8861;52.644;4.734;2022-10-13T13:29:23;16.50;99.90
17489;DHT22;8861;52.644;4.734;2022-10-13T13:31:50;16.50;99.90
17489;DHT22;8861;52.644;4.734;2022-10-13T13:34:18;16.50;99.90
17489;DHT22;8861;52.644;4.734;2022-10-13T13:36:47;16.50;99.90
17489;DHT22;8861;52.644;4.734;2022-10-13T13:39:15;16.50;99.90
17489;DHT22;8861;52.644;4.734;2022-10-13T13:41:43;16.50;99.90
17489;DHT22;8861;52.644;4.734;2022-10-13T13:44:11;16.60;99.90
17489;DHT22;8861;52.644;4.734;2022-10-13T13:46:38;16.60;99.90
17489;DHT22;8861;52.644;4.734;2022-10-13T13:49:07;16.60;99.90
17489;DHT22;8861;52.644;4.734;2022-10-13T13:51:35;16.60;99.90
17489;DHT22;8861;52.644;4.734;2022-10-13T13:54:03;16.50;99.90
17489;DHT22;8861;52.644;4.734;2022-10-13T13:56:30;16.50;99.90
17489;DHT22;8861;52.644;4.734;2022-10-13T13:58:57;16.50;99.90
17489;DHT22;8861;52.644;4.734;2022-10-13T14:01:24;16.40;99.90
17489;DHT22;8861;52.644;4.734;2022-10-13T14:03:51;16.30;99.90
17489;DHT22;8861;52.644;4.734;2022-10-13T14:06:18;16.20;99.90
17489;DHT22;8861;52.644;4.734;2022-10-13T14:08:47;16.10;99.90
17489;DHT22;8861;52.644;4.734;2022-10-13T14:11:14;16.00;99.90
17489;DHT22;8861;52.644;4.734;2022-10-13T14:13:41;16.00;99.90
17489;DHT22;8861;52.644;4.734;2022-10-13T14:16:13;15.90;99.90
17489;DHT22;8861;52.644;4.734;2022-10-13T14:18:41;15.90;99.90
17489;DHT22;8861;52.644;4.734;2022-10-13T14:21:08;15.90;99.90
17489;DHT22;8861;52.644;4.734;2022-10-13T14:23:34;15.90;99.90
17489;DHT22;8861;52.644;4.734;2022-10-13T14:26:06;15.90;99.90
17489;DHT22;8861;52.644;4.734;2022-10-13T14:28:34;15.90;99.90
17489;DHT22;8861;52.644;4.734;2022-10-13T14:31:04;16.00;99.90
17489;DHT22;8861;52.644;4.734;2022-10-13T14:33:31;16.00;99.90
17489;DHT22;8861;52.644;4.734;2022-10-13T14:35:59;16.00;99.90
17489;DHT22;8861;52.644;4.734;2022-10-13T14:38:26;16.10;99.90
17489;DHT22;8861;52.644;4.734;2022-10-13T14:40:57;16.10;99.90
17489;DHT22;8861;52.644;4.734;2022-10-13T14:43:26;16.10;99.90
17489;DHT22;8861;52.644;4.734;2022-10-13T14:45:53;16.10;99.90
17489;DHT22;8861;52.644;4.734;2022-10-13T14:48:20;16.00;99.90
17489;DHT22;8861;52.644;4.734;2022-10-13T14:50:47;16.00;99.90
17489;DHT22;8861;52.644;4.734;2022-10-13T14:53:14;16.10;99.90
17489;DHT22;8861;52.644;4.734;2022-10-13T14:55:41;16.10;99.90
17489;DHT22;8861;52.644;4.734;2022-10-13T14:58:08;16.10;99.90
17489;DHT22;8861;52.644;4.734;2022-10-13T15:00:36;16.10;99.90
17489;DHT22;8861;52.644;4.734;2022-10-13T15:03:03;16.10;99.90
17489;DHT22;8861;52.644;4.734;2022-10-13T15:05:33;16.00;99.90
17489;DHT22;8861;52.644;4.734;2022-10-13T15:08:00;16.00;99.90
17489;DHT22;8861;52.644;4.734;2022-10-13T15:10:27;15.90;99.90
17489;DHT22;8861;52.644;4.734;2022-10-13T15:12:55;15.80;99.90
17489;DHT22;8861;52.644;4.734;2022-10-13T15:15:22;15.80;99.90
17489;DHT22;8861;52.644;4.734;2022-10-13T15:17:50;15.70;99.90
17489;DHT22;8861;52.644;4.734;2022-10-13T15:20:17;15.70;99.90
17489;DHT22;8861;52.644;4.734;2022-10-13T15:22:45;15.70;99.90
17489;DHT22;8861;52.644;4.734;2022-10-13T15:25:12;15.70;99.90
17489;DHT22;8861;52.644;4.734;2022-10-13T15:27:39;15.60;99.90
17489;DHT22;8861;52.644;4.734;2022-10-13T15:30:07;15.70;99.90
17489;DHT22;8861;52.644;4.734;2022-10-13T15:32:36;15.60;99.90
17489;DHT22;8861;52.644;4.734;2022-10-13T15:35:05;15.50;99.90
17489;DHT22;8861;52.644;4.734;2022-10-13T15:37:32;15.50;99.90
17489;DHT22;8861;52.644;4.734;2022-10-13T15:39:59;15.40;99.90
17489;DHT22;8861;52.644;4.734;2022-10-13T15:42:25;15.40;99.90
17489;DHT22;8861;52.644;4.734;2022-10-13T15:44:53;15.30;99.90
17489;DHT22;8861;52.644;4.734;2022-10-13T15:47:20;15.30;99.90
17489;DHT22;8861;52.644;4.734;2022-10-13T15:49:47;15.20;99.90
17489;DHT22;8861;52.644;4.734;2022-10-13T15:52:15;15.20;99.90
17489;DHT22;8861;52.644;4.734;2022-10-13T15:54:42;15.10;99.90
17489;DHT22;8861;52.644;4.734;2022-10-13T15:57:09;15.00;99.90
17489;DHT22;8861;52.644;4.734;2022-10-13T15:59:35;14.90;99.90
17489;DHT22;8861;52.644;4.734;2022-10-13T16:02:02;14.70;99.90
17489;DHT22;8861;52.644;4.734;2022-10-13T16:04:29;14.50;99.90
17489;DHT22;8861;52.644;4.734;2022-10-13T16:06:56;14.30;99.90
17489;DHT22;8861;52.644;4.734;2022-10-13T16:09:24;14.20;99.90
17489;DHT22;8861;52.644;4.734;2022-10-13T16:11:51;14.10;99.90